Tinley Park, IL

20:06 CST 20. Listopad 2014 (GMT -0600)
Gary / Chicago | Change Station
CLOSE
Current Station
Letiště
Location: Gary,
Nadmořská výška: 591 ft
Poblíž povětrnostní stanice
Active Advisory: Special Statement

Výška 591 ft 41.62 °N, 87.41 °W | Updated 21 minutes ago

Jasno
Jasno
23 °F
Pocit jako 12 °F
S
12
Vítr proměnlivý Vítr od západní

Dnes
Vysoké -- | Nízké -- °F
--% Možnost srážek
Včera
Vysoké -- | Nízké -- °F
Precip. -- inčů
6:46 AM 4:27 PM
Ubývající srpek, 2% visible
Tlak 30.21 inčů
Viditelnost 10.0 mílí
Zataženo Jasno
Ochlazování větrem 12 °F
Rosný bod 5 °F
Vlhkost 46%
Dešťové srážky 0.00 inčů
Sněhová pokrývka Není k dispozici
UV záření 0 ze 12
Pyl .10 ze 12
Kvalita ovzduší Není k dispozici
Flu Activity Není k dispozici
METAR KGYY 210145Z 28010KT 10SM SKC M05/M15 A3021

More Conditions Fewer Conditions

Tlak 30.21 inčů
Viditelnost 10.0 mílí
Zataženo Jasno
Ochlazování větrem 12 °F
Rosný bod 5 °F
Vlhkost 46%
Dešťové srážky 0.00 inčů
Sněhová pokrývka Není k dispozici
UV záření 0 ze 12
Pyl .10 ze 12
Kvalita ovzduší Není k dispozici
Flu Activity Není k dispozici
METAR KGYY 210145Z 28010KT 10SM SKC M05/M15 A3021

More Conditions Fewer Conditions

10-Day Weather Forecast

Almanac

Astronomie

Nov. 20, 2014 Východ Západ
Skutečný čas
Občanský soumrak
Námořní soumrak
Astronomický soumrak
Měsíc
Délka denního světla
Délka dne
Tomorrow will be .
, % of the Moon is Illuminated

Dnešní extrémy

State Highs State Lows

Community

WunderPhotos

Upload Photos

1,772,585 snímků staženo!

WunderBlogs® & News

Nearby

Kvalita ovzduší

  Kvalita ovzduší Index kvality ovzduší Polutant
Not available.

Výška sněhu

Station Hloubka Nadmořská výška

Seizmická činnost

Město Distance Mag. Čas & datum
Minimální zobrazený rozsah je 2.5.

Pobřežní teplota vody

Lokalita Teplota

Poblíž povětrnostní stanice